KSBN

South Bend International Airport

South Bend, Indiana, USA
KSBN 190520Z 1906/2006 21007KT P6SM SKC FM191500 21014G22KT P6SM BKN200 FM191900 22015G23KT P6SM VCSH BKN050 OVC150 FM192300 22014KT P6SM OVC030
Issued Valid From Valid To
Oct-19 @ 05:20 UTC
(4 hours ago)
Oct-19 @ 06:00 UTC
(4 hours ago)
Oct-20 @ 06:00 UTC
(in 20 hours)
Oct-19 @ 06:00 to Oct-19 @ 15:00
KSBN 190520Z 1906/2006 21007KT P6SM SKC
Wind Visibility Clouds
210° at 7 knots Greater than 6 miles
  • Clear skies
From Oct-19 @ 15:00 to Oct-19 @ 19:00
FM191500 21014G22KT P6SM BKN200
Wind Visibility Clouds
210° at 14 knots
 Gusting to 22 knots
Greater than 6 miles
  • Broken at 20,000' AGL
From Oct-19 @ 19:00 to Oct-19 @ 23:00
FM191900 22015G23KT P6SM VCSH BKN050 OVC150
Wind Visibility Clouds
220° at 15 knots
 Gusting to 23 knots
Greater than 6 miles
  • Broken at 5,000' AGL
  • Overcast at 15,000' AGL
From Oct-19 @ 23:00 to Oct-20 @ 06:00
FM192300 22014KT P6SM OVC030
Wind Visibility Clouds
220° at 14 knots Greater than 6 miles
  • Overcast at 3,000' AGL
KSBN 190520Z 1906/2006 21007KT P6SM SKC FM191500 21014G22KT P6SM BKN200 FM191900 22015G23KT P6SM VCSH BKN050 OVC150 FM192300 22014KT P6SM OVC030
Issued Oct-19 @ 05:20 UTC
(4 hours ago)
Valid From Oct-19 @ 06:00 UTC
(4 hours ago)
Valid To Oct-20 @ 06:00 UTC
(in 20 hours)
Oct-19 @ 06:00 - Oct-19 @ 15:00
Wind Visibility
210° at 7 knots Greater than 6 miles
Clouds
  • Clear skies
From Oct-19 @ 15:00 - Oct-19 @ 19:00
Wind Visibility
210° at 14 knots
 Gusting to 22 knots
Greater than 6 miles
Clouds
  • Broken at 20,000' AGL
From Oct-19 @ 19:00 - Oct-19 @ 23:00
Wind Visibility
220° at 15 knots
 Gusting to 23 knots
Greater than 6 miles
Clouds
  • Broken at 5,000' AGL
  • Overcast at 15,000' AGL
From Oct-19 @ 23:00 - Oct-20 @ 06:00
Wind Visibility
220° at 14 knots Greater than 6 miles
Clouds
  • Overcast at 3,000' AGL